sensor_id;sensor_type;location;lat;lon;timestamp;temperature;humidity
42037;DHT22;30340;52.004;5.908;2023-08-24T00:01:07;20.50;74.10
42037;DHT22;30340;52.004;5.908;2023-08-24T00:03:34;20.50;74.30
42037;DHT22;30340;52.004;5.908;2023-08-24T00:06:00;20.50;74.30
42037;DHT22;30340;52.004;5.908;2023-08-24T00:08:26;20.50;74.10
42037;DHT22;30340;52.004;5.908;2023-08-24T00:10:52;20.60;74.10
42037;DHT22;30340;52.004;5.908;2023-08-24T00:13:17;20.50;74.60
42037;DHT22;30340;52.004;5.908;2023-08-24T00:15:45;20.50;74.70
42037;DHT22;30340;52.004;5.908;2023-08-24T00:18:10;20.50;74.80
42037;DHT22;30340;52.004;5.908;2023-08-24T00:20:36;20.50;74.70
42037;DHT22;30340;52.004;5.908;2023-08-24T00:23:03;20.50;75.00
42037;DHT22;30340;52.004;5.908;2023-08-24T00:25:29;20.50;75.00
42037;DHT22;30340;52.004;5.908;2023-08-24T00:27:55;20.50;74.90
42037;DHT22;30340;52.004;5.908;2023-08-24T00:30:21;20.50;74.90
42037;DHT22;30340;52.004;5.908;2023-08-24T00:32:47;20.40;75.40
42037;DHT22;30340;52.004;5.908;2023-08-24T00:35:12;20.40;75.60
42037;DHT22;30340;52.004;5.908;2023-08-24T00:37:39;20.40;76.00
42037;DHT22;30340;52.004;5.908;2023-08-24T00:40:06;20.40;76.00
42037;DHT22;30340;52.004;5.908;2023-08-24T00:42:42;20.30;76.20
42037;DHT22;30340;52.004;5.908;2023-08-24T00:45:09;20.30;76.30
42037;DHT22;30340;52.004;5.908;2023-08-24T00:47:40;20.30;76.30
42037;DHT22;30340;52.004;5.908;2023-08-24T00:50:07;20.30;76.20
42037;DHT22;30340;52.004;5.908;2023-08-24T00:52:33;20.30;76.50
42037;DHT22;30340;52.004;5.908;2023-08-24T00:54:59;20.30;76.50
42037;DHT22;30340;52.004;5.908;2023-08-24T00:57:27;20.30;76.40
42037;DHT22;30340;52.004;5.908;2023-08-24T00:59:53;20.30;76.40
42037;DHT22;30340;52.004;5.908;2023-08-24T01:02:19;20.30;76.60
42037;DHT22;30340;52.004;5.908;2023-08-24T01:04:46;20.30;77.10
42037;DHT22;30340;52.004;5.908;2023-08-24T01:07:13;20.30;77.30
42037;DHT22;30340;52.004;5.908;2023-08-24T01:09:39;20.30;77.50
42037;DHT22;30340;52.004;5.908;2023-08-24T01:15:04;20.20;78.10
42037;DHT22;30340;52.004;5.908;2023-08-24T01:17:35;20.20;78.30
42037;DHT22;30340;52.004;5.908;2023-08-24T01:20:02;20.20;79.00
42037;DHT22;30340;52.004;5.908;2023-08-24T01:22:40;20.20;79.60
42037;DHT22;30340;52.004;5.908;2023-08-24T01:26:10;20.20;79.50
42037;DHT22;30340;52.004;5.908;2023-08-24T01:28:11;20.20;79.70
42037;DHT22;30340;52.004;5.908;2023-08-24T01:30:38;20.20;79.90
42037;DHT22;30340;52.004;5.908;2023-08-24T01:33:04;20.20;79.90
42037;DHT22;30340;52.004;5.908;2023-08-24T01:35:30;20.20;80.10
42037;DHT22;30340;52.004;5.908;2023-08-24T01:37:57;20.20;80.30
42037;DHT22;30340;52.004;5.908;2023-08-24T01:40:58;20.20;80.60
42037;DHT22;30340;52.004;5.908;2023-08-24T01:43:30;20.20;81.00
42037;DHT22;30340;52.004;5.908;2023-08-24T01:46:00;20.10;81.60
42037;DHT22;30340;52.004;5.908;2023-08-24T01:48:27;20.10;81.60
42037;DHT22;30340;52.004;5.908;2023-08-24T01:50:54;20.10;81.50
42037;DHT22;30340;52.004;5.908;2023-08-24T01:53:20;20.10;81.40
42037;DHT22;30340;52.004;5.908;2023-08-24T01:55:46;20.20;81.60
42037;DHT22;30340;52.004;5.908;2023-08-24T01:58:11;20.10;81.60
42037;DHT22;30340;52.004;5.908;2023-08-24T02:00:37;20.10;81.70
42037;DHT22;30340;52.004;5.908;2023-08-24T02:03:03;20.10;81.80
42037;DHT22;30340;52.004;5.908;2023-08-24T02:05:29;20.10;81.80
42037;DHT22;30340;52.004;5.908;2023-08-24T02:07:55;20.10;81.80
42037;DHT22;30340;52.004;5.908;2023-08-24T02:10:20;20.10;81.90
42037;DHT22;30340;52.004;5.908;2023-08-24T02:12:46;20.10;81.80
42037;DHT22;30340;52.004;5.908;2023-08-24T02:15:11;20.10;81.70
42037;DHT22;30340;52.004;5.908;2023-08-24T02:17:37;20.10;81.80
42037;DHT22;30340;52.004;5.908;2023-08-24T02:20:03;20.20;81.50
42037;DHT22;30340;52.004;5.908;2023-08-24T02:22:29;20.20;81.20
42037;DHT22;30340;52.004;5.908;2023-08-24T02:24:55;20.20;81.40
42037;DHT22;30340;52.004;5.908;2023-08-24T02:27:21;20.20;81.40
42037;DHT22;30340;52.004;5.908;2023-08-24T02:29:46;20.20;81.30
42037;DHT22;30340;52.004;5.908;2023-08-24T02:32:12;20.30;81.40
42037;DHT22;30340;52.004;5.908;2023-08-24T02:34:38;20.30;81.20
42037;DHT22;30340;52.004;5.908;2023-08-24T02:37:04;20.30;80.90
42037;DHT22;30340;52.004;5.908;2023-08-24T02:39:29;20.30;81.20
42037;DHT22;30340;52.004;5.908;2023-08-24T02:41:55;20.30;81.30
42037;DHT22;30340;52.004;5.908;2023-08-24T02:44:21;20.30;81.20
42037;DHT22;30340;52.004;5.908;2023-08-24T02:46:48;20.30;81.10
42037;DHT22;30340;52.004;5.908;2023-08-24T02:49:14;20.30;80.90
42037;DHT22;30340;52.004;5.908;2023-08-24T02:51:39;20.40;80.90
42037;DHT22;30340;52.004;5.908;2023-08-24T02:54:06;20.30;81.30
42037;DHT22;30340;52.004;5.908;2023-08-24T02:56:31;20.20;81.90
42037;DHT22;30340;52.004;5.908;2023-08-24T02:58:57;20.10;82.40
42037;DHT22;30340;52.004;5.908;2023-08-24T03:01:23;20.10;82.50
42037;DHT22;30340;52.004;5.908;2023-08-24T03:03:48;20.00;82.80
42037;DHT22;30340;52.004;5.908;2023-08-24T03:06:14;20.10;82.70
42037;DHT22;30340;52.004;5.908;2023-08-24T03:08:40;20.10;82.60
42037;DHT22;30340;52.004;5.908;2023-08-24T03:11:06;20.00;84.00
42037;DHT22;30340;52.004;5.908;2023-08-24T03:13:31;19.90;83.70
42037;DHT22;30340;52.004;5.908;2023-08-24T03:15:57;19.90;83.80
42037;DHT22;30340;52.004;5.908;2023-08-24T03:18:28;19.90;84.10
42037;DHT22;30340;52.004;5.908;2023-08-24T03:20:53;19.90;84.10
42037;DHT22;30340;52.004;5.908;2023-08-24T03:23:19;19.90;84.40
42037;DHT22;30340;52.004;5.908;2023-08-24T03:25:44;19.90;84.50
42037;DHT22;30340;52.004;5.908;2023-08-24T03:28:10;19.80;84.70
42037;DHT22;30340;52.004;5.908;2023-08-24T03:30:37;19.80;85.60
42037;DHT22;30340;52.004;5.908;2023-08-24T03:33:04;19.80;85.30
42037;DHT22;30340;52.004;5.908;2023-08-24T03:35:33;19.70;85.70
42037;DHT22;30340;52.004;5.908;2023-08-24T03:37:58;19.70;86.10
42037;DHT22;30340;52.004;5.908;2023-08-24T03:40:24;19.60;86.10
42037;DHT22;30340;52.004;5.908;2023-08-24T03:42:50;19.60;86.30
42037;DHT22;30340;52.004;5.908;2023-08-24T03:45:16;19.60;86.50
42037;DHT22;30340;52.004;5.908;2023-08-24T03:47:42;19.60;86.40
42037;DHT22;30340;52.004;5.908;2023-08-24T03:50:08;19.60;86.40
42037;DHT22;30340;52.004;5.908;2023-08-24T03:52:33;19.60;86.50
42037;DHT22;30340;52.004;5.908;2023-08-24T03:54:59;19.50;86.70
42037;DHT22;30340;52.004;5.908;2023-08-24T03:57:25;19.50;87.00
42037;DHT22;30340;52.004;5.908;2023-08-24T03:59:50;19.50;86.90
42037;DHT22;30340;52.004;5.908;2023-08-24T04:02:16;19.50;86.90
42037;DHT22;30340;52.004;5.908;2023-08-24T04:04:42;19.40;87.00
42037;DHT22;30340;52.004;5.908;2023-08-24T04:07:08;19.40;87.30
42037;DHT22;30340;52.004;5.908;2023-08-24T04:09:33;19.40;87.70
42037;DHT22;30340;52.004;5.908;2023-08-24T04:11:59;19.40;87.80
42037;DHT22;30340;52.004;5.908;2023-08-24T04:14:24;19.40;87.90
42037;DHT22;30340;52.004;5.908;2023-08-24T04:16:50;19.30;88.00
42037;DHT22;30340;52.004;5.908;2023-08-24T04:19:15;19.30;88.10
42037;DHT22;30340;52.004;5.908;2023-08-24T04:21:41;19.30;88.20
42037;DHT22;30340;52.004;5.908;2023-08-24T04:24:07;19.30;88.50
42037;DHT22;30340;52.004;5.908;2023-08-24T04:26:32;19.30;88.40
42037;DHT22;30340;52.004;5.908;2023-08-24T04:28:58;19.30;88.40
42037;DHT22;30340;52.004;5.908;2023-08-24T04:31:23;19.30;88.20
42037;DHT22;30340;52.004;5.908;2023-08-24T04:33:49;19.30;88.30
42037;DHT22;30340;52.004;5.908;2023-08-24T04:36:15;19.30;88.50
42037;DHT22;30340;52.004;5.908;2023-08-24T04:38:40;19.30;88.70
42037;DHT22;30340;52.004;5.908;2023-08-24T04:41:08;19.20;88.80
42037;DHT22;30340;52.004;5.908;2023-08-24T04:43:34;19.20;88.90
42037;DHT22;30340;52.004;5.908;2023-08-24T04:46:02;19.30;88.90
42037;DHT22;30340;52.004;5.908;2023-08-24T04:48:27;19.20;89.10
42037;DHT22;30340;52.004;5.908;2023-08-24T04:50:58;19.20;89.10
42037;DHT22;30340;52.004;5.908;2023-08-24T04:53:24;19.30;89.10
42037;DHT22;30340;52.004;5.908;2023-08-24T04:55:50;19.30;89.00
42037;DHT22;30340;52.004;5.908;2023-08-24T04:58:16;19.30;89.00
42037;DHT22;30340;52.004;5.908;2023-08-24T05:00:41;19.30;88.70
42037;DHT22;30340;52.004;5.908;2023-08-24T05:03:07;19.40;88.60
42037;DHT22;30340;52.004;5.908;2023-08-24T05:05:34;19.40;88.30
42037;DHT22;30340;52.004;5.908;2023-08-24T05:08:00;19.40;88.20
42037;DHT22;30340;52.004;5.908;2023-08-24T05:10:30;19.40;88.20
42037;DHT22;30340;52.004;5.908;2023-08-24T05:12:56;19.40;88.40
42037;DHT22;30340;52.004;5.908;2023-08-24T05:15:22;19.40;88.30
42037;DHT22;30340;52.004;5.908;2023-08-24T05:17:47;19.40;88.30
42037;DHT22;30340;52.004;5.908;2023-08-24T05:20:13;19.40;88.40
42037;DHT22;30340;52.004;5.908;2023-08-24T05:22:39;19.40;88.20
42037;DHT22;30340;52.004;5.908;2023-08-24T05:25:05;19.50;88.00
42037;DHT22;30340;52.004;5.908;2023-08-24T05:27:31;19.60;87.70
42037;DHT22;30340;52.004;5.908;2023-08-24T05:29:57;19.60;87.40
42037;DHT22;30340;52.004;5.908;2023-08-24T05:32:23;19.70;87.20
42037;DHT22;30340;52.004;5.908;2023-08-24T05:34:48;19.90;87.40
42037;DHT22;30340;52.004;5.908;2023-08-24T05:37:14;20.70;85.90
42037;DHT22;30340;52.004;5.908;2023-08-24T05:39:40;21.40;83.30
42037;DHT22;30340;52.004;5.908;2023-08-24T05:42:06;21.80;80.50
42037;DHT22;30340;52.004;5.908;2023-08-24T05:44:31;22.30;78.60
42037;DHT22;30340;52.004;5.908;2023-08-24T05:46:57;22.80;77.10
42037;DHT22;30340;52.004;5.908;2023-08-24T05:49:23;23.20;75.00
42037;DHT22;30340;52.004;5.908;2023-08-24T05:51:50;22.70;74.50
42037;DHT22;30340;52.004;5.908;2023-08-24T05:54:16;22.30;75.40
42037;DHT22;30340;52.004;5.908;2023-08-24T05:56:44;21.90;76.60
42037;DHT22;30340;52.004;5.908;2023-08-24T05:59:10;21.60;77.60
42037;DHT22;30340;52.004;5.908;2023-08-24T06:01:36;21.30;78.60
42037;DHT22;30340;52.004;5.908;2023-08-24T06:04:05;21.20;79.30
42037;DHT22;30340;52.004;5.908;2023-08-24T06:06:30;21.10;79.80
42037;DHT22;30340;52.004;5.908;2023-08-24T06:08:56;21.00;80.30
42037;DHT22;30340;52.004;5.908;2023-08-24T06:11:22;21.40;80.40
42037;DHT22;30340;52.004;5.908;2023-08-24T06:13:48;22.30;78.40
42037;DHT22;30340;52.004;5.908;2023-08-24T06:16:14;23.10;75.50
42037;DHT22;30340;52.004;5.908;2023-08-24T06:18:40;23.90;73.00
42037;DHT22;30340;52.004;5.908;2023-08-24T06:21:05;24.30;70.40
42037;DHT22;30340;52.004;5.908;2023-08-24T06:23:31;24.80;69.10
42037;DHT22;30340;52.004;5.908;2023-08-24T06:25:56;25.10;67.80
42037;DHT22;30340;52.004;5.908;2023-08-24T06:28:22;25.60;66.40
42037;DHT22;30340;52.004;5.908;2023-08-24T06:30:47;25.80;65.30
42037;DHT22;30340;52.004;5.908;2023-08-24T06:33:13;25.90;64.70
42037;DHT22;30340;52.004;5.908;2023-08-24T06:35:40;26.00;64.30
42037;DHT22;30340;52.004;5.908;2023-08-24T06:38:05;26.10;63.80
42037;DHT22;30340;52.004;5.908;2023-08-24T06:40:31;26.80;63.40
42037;DHT22;30340;52.004;5.908;2023-08-24T06:42:57;27.20;62.10
42037;DHT22;30340;52.004;5.908;2023-08-24T06:45:23;27.50;60.80
42037;DHT22;30340;52.004;5.908;2023-08-24T06:47:49;27.70;60.40
42037;DHT22;30340;52.004;5.908;2023-08-24T06:50:15;28.20;59.60
42037;DHT22;30340;52.004;5.908;2023-08-24T06:52:41;28.40;58.40
42037;DHT22;30340;52.004;5.908;2023-08-24T06:55:08;28.70;58.40
42037;DHT22;30340;52.004;5.908;2023-08-24T06:57:34;29.10;57.50
42037;DHT22;30340;52.004;5.908;2023-08-24T07:00:00;29.30;56.80
42037;DHT22;30340;52.004;5.908;2023-08-24T07:02:25;29.40;56.40
42037;DHT22;30340;52.004;5.908;2023-08-24T07:04:51;29.60;55.70
42037;DHT22;30340;52.004;5.908;2023-08-24T07:07:17;29.80;55.60
42037;DHT22;30340;52.004;5.908;2023-08-24T07:09:42;29.90;55.00
42037;DHT22;30340;52.004;5.908;2023-08-24T07:12:09;30.50;54.90
42037;DHT22;30340;52.004;5.908;2023-08-24T07:14:36;30.40;54.00
42037;DHT22;30340;52.004;5.908;2023-08-24T07:17:02;30.50;53.90
42037;DHT22;30340;52.004;5.908;2023-08-24T07:19:28;30.50;53.50
42037;DHT22;30340;52.004;5.908;2023-08-24T07:21:53;30.80;52.60
42037;DHT22;30340;52.004;5.908;2023-08-24T07:24:19;31.10;52.50
42037;DHT22;30340;52.004;5.908;2023-08-24T07:26:46;30.90;52.00
42037;DHT22;30340;52.004;5.908;2023-08-24T07:29:12;30.80;52.50
42037;DHT22;30340;52.004;5.908;2023-08-24T07:31:38;31.00;52.10
42037;DHT22;30340;52.004;5.908;2023-08-24T07:34:03;31.00;51.90
42037;DHT22;30340;52.004;5.908;2023-08-24T07:36:30;31.40;51.70
42037;DHT22;30340;52.004;5.908;2023-08-24T07:38:56;31.80;50.90
42037;DHT22;30340;52.004;5.908;2023-08-24T07:41:21;31.90;50.60
42037;DHT22;30340;52.004;5.908;2023-08-24T07:43:47;32.10;50.50
42037;DHT22;30340;52.004;5.908;2023-08-24T07:46:13;32.00;50.20
42037;DHT22;30340;52.004;5.908;2023-08-24T07:48:39;31.70;49.70
42037;DHT22;30340;52.004;5.908;2023-08-24T07:51:05;31.30;49.80
42037;DHT22;30340;52.004;5.908;2023-08-24T07:53:30;31.20;49.70
42037;DHT22;30340;52.004;5.908;2023-08-24T07:55:58;31.10;50.00
42037;DHT22;30340;52.004;5.908;2023-08-24T07:58:25;31.30;49.80
42037;DHT22;30340;52.004;5.908;2023-08-24T08:00:51;31.20;50.10
42037;DHT22;30340;52.004;5.908;2023-08-24T08:03:20;31.90;49.70
42037;DHT22;30340;52.004;5.908;2023-08-24T08:05:46;31.90;49.30
42037;DHT22;30340;52.004;5.908;2023-08-24T08:08:15;31.80;49.40
42037;DHT22;30340;52.004;5.908;2023-08-24T08:10:41;32.10;49.20
42037;DHT22;30340;52.004;5.908;2023-08-24T08:13:07;31.80;49.10
42037;DHT22;30340;52.004;5.908;2023-08-24T08:15:33;31.80;49.10
42037;DHT22;30340;52.004;5.908;2023-08-24T08:17:59;31.90;48.70
42037;DHT22;30340;52.004;5.908;2023-08-24T08:20:24;31.40;48.90
42037;DHT22;30340;52.004;5.908;2023-08-24T08:22:50;31.00;49.90
42037;DHT22;30340;52.004;5.908;2023-08-24T08:25:16;30.70;50.30
42037;DHT22;30340;52.004;5.908;2023-08-24T08:27:43;30.00;51.30
42037;DHT22;30340;52.004;5.908;2023-08-24T08:30:09;29.60;52.70
42037;DHT22;30340;52.004;5.908;2023-08-24T08:32:35;29.20;53.50
42037;DHT22;30340;52.004;5.908;2023-08-24T08:35:01;28.50;54.70
42037;DHT22;30340;52.004;5.908;2023-08-24T08:37:30;28.10;56.10
42037;DHT22;30340;52.004;5.908;2023-08-24T08:39:57;27.90;56.90
42037;DHT22;30340;52.004;5.908;2023-08-24T08:42:23;27.60;57.60
42037;DHT22;30340;52.004;5.908;2023-08-24T08:44:49;27.40;58.40
42037;DHT22;30340;52.004;5.908;2023-08-24T08:47:15;27.20;58.90
42037;DHT22;30340;52.004;5.908;2023-08-24T08:49:45;27.00;59.60
42037;DHT22;30340;52.004;5.908;2023-08-24T08:52:12;26.80;60.00
42037;DHT22;30340;52.004;5.908;2023-08-24T08:54:38;26.70;60.90
42037;DHT22;30340;52.004;5.908;2023-08-24T08:57:04;26.60;61.30
42037;DHT22;30340;52.004;5.908;2023-08-24T08:59:30;26.70;61.90
42037;DHT22;30340;52.004;5.908;2023-08-24T09:01:57;26.60;62.00
42037;DHT22;30340;52.004;5.908;2023-08-24T09:04:24;26.50;62.40
42037;DHT22;30340;52.004;5.908;2023-08-24T09:06:50;26.60;62.50
42037;DHT22;30340;52.004;5.908;2023-08-24T09:09:15;26.60;62.90
42037;DHT22;30340;52.004;5.908;2023-08-24T09:11:42;26.60;63.40
42037;DHT22;30340;52.004;5.908;2023-08-24T09:14:12;26.60;63.00
42037;DHT22;30340;52.004;5.908;2023-08-24T09:16:38;26.70;63.00
42037;DHT22;30340;52.004;5.908;2023-08-24T09:19:05;26.70;63.10
42037;DHT22;30340;52.004;5.908;2023-08-24T09:21:36;26.90;63.10
42037;DHT22;30340;52.004;5.908;2023-08-24T09:24:02;26.80;63.40
42037;DHT22;30340;52.004;5.908;2023-08-24T09:26:33;26.70;63.30
42037;DHT22;30340;52.004;5.908;2023-08-24T09:29:00;26.70;63.40
42037;DHT22;30340;52.004;5.908;2023-08-24T09:31:36;26.80;63.60
42037;DHT22;30340;52.004;5.908;2023-08-24T09:34:02;26.80;63.60
42037;DHT22;30340;52.004;5.908;2023-08-24T09:36:32;26.90;63.70
42037;DHT22;30340;52.004;5.908;2023-08-24T09:38:59;26.80;63.60
42037;DHT22;30340;52.004;5.908;2023-08-24T09:41:50;26.80;63.70
42037;DHT22;30340;52.004;5.908;2023-08-24T09:44:18;26.80;63.80
42037;DHT22;30340;52.004;5.908;2023-08-24T09:46:44;26.90;63.60
42037;DHT22;30340;52.004;5.908;2023-08-24T09:49:11;27.00;63.40
42037;DHT22;30340;52.004;5.908;2023-08-24T09:51:40;26.90;63.40
42037;DHT22;30340;52.004;5.908;2023-08-24T09:54:10;26.90;63.10
42037;DHT22;30340;52.004;5.908;2023-08-24T09:56:40;26.70;63.10
42037;DHT22;30340;52.004;5.908;2023-08-24T09:59:15;26.80;63.20
42037;DHT22;30340;52.004;5.908;2023-08-24T10:01:48;26.80;63.30
42037;DHT22;30340;52.004;5.908;2023-08-24T10:04:17;26.80;63.00
42037;DHT22;30340;52.004;5.908;2023-08-24T10:06:43;26.90;63.10
42037;DHT22;30340;52.004;5.908;2023-08-24T10:09:30;26.90;63.40
42037;DHT22;30340;52.004;5.908;2023-08-24T10:12:02;26.80;63.20
42037;DHT22;30340;52.004;5.908;2023-08-24T10:14:42;26.80;63.90
42037;DHT22;30340;52.004;5.908;2023-08-24T10:17:09;26.80;63.60
42037;DHT22;30340;52.004;5.908;2023-08-24T10:19:36;26.90;63.50
42037;DHT22;30340;52.004;5.908;2023-08-24T10:22:03;27.10;63.40
42037;DHT22;30340;52.004;5.908;2023-08-24T10:24:31;27.10;63.10
42037;DHT22;30340;52.004;5.908;2023-08-24T10:26:58;27.00;63.00
42037;DHT22;30340;52.004;5.908;2023-08-24T10:29:26;27.10;62.90
42037;DHT22;30340;52.004;5.908;2023-08-24T10:31:53;27.00;63.00
42037;DHT22;30340;52.004;5.908;2023-08-24T10:34:19;26.90;62.80
42037;DHT22;30340;52.004;5.908;2023-08-24T10:36:47;26.90;63.20
42037;DHT22;30340;52.004;5.908;2023-08-24T10:39:14;27.00;63.30
42037;DHT22;30340;52.004;5.908;2023-08-24T10:41:50;26.90;63.40
42037;DHT22;30340;52.004;5.908;2023-08-24T10:44:24;26.80;63.60
42037;DHT22;30340;52.004;5.908;2023-08-24T10:47:19;26.90;63.90
42037;DHT22;30340;52.004;5.908;2023-08-24T10:50:05;26.80;63.80
42037;DHT22;30340;52.004;5.908;2023-08-24T10:52:38;26.80;64.00
42037;DHT22;30340;52.004;5.908;2023-08-24T10:55:21;26.80;64.20
42037;DHT22;30340;52.004;5.908;2023-08-24T10:58:00;26.70;64.30
42037;DHT22;30340;52.004;5.908;2023-08-24T11:00:30;26.70;64.60
42037;DHT22;30340;52.004;5.908;2023-08-24T11:02:57;26.60;64.80
42037;DHT22;30340;52.004;5.908;2023-08-24T11:05:27;26.60;65.00
42037;DHT22;30340;52.004;5.908;2023-08-24T11:07:55;26.70;65.00
42037;DHT22;30340;52.004;5.908;2023-08-24T11:10:23;26.70;65.10
42037;DHT22;30340;52.004;5.908;2023-08-24T11:13:11;26.70;65.20
42037;DHT22;30340;52.004;5.908;2023-08-24T11:15:45;26.70;65.30
42037;DHT22;30340;52.004;5.908;2023-08-24T11:18:31;26.70;65.30
42037;DHT22;30340;52.004;5.908;2023-08-24T11:21:05;26.70;65.40
42037;DHT22;30340;52.004;5.908;2023-08-24T11:23:31;26.70;65.30
42037;DHT22;30340;52.004;5.908;2023-08-24T11:25:58;26.60;65.30
42037;DHT22;30340;52.004;5.908;2023-08-24T11:28:28;26.60;65.50
42037;DHT22;30340;52.004;5.908;2023-08-24T11:30:56;26.60;65.70
42037;DHT22;30340;52.004;5.908;2023-08-24T11:33:35;26.60;65.80
42037;DHT22;30340;52.004;5.908;2023-08-24T11:36:03;26.60;65.70
42037;DHT22;30340;52.004;5.908;2023-08-24T11:38:52;26.50;66.10
42037;DHT22;30340;52.004;5.908;2023-08-24T11:41:18;26.60;66.20
42037;DHT22;30340;52.004;5.908;2023-08-24T11:43:45;26.60;66.00
42037;DHT22;30340;52.004;5.908;2023-08-24T11:46:13;26.70;65.80
42037;DHT22;30340;52.004;5.908;2023-08-24T11:48:39;26.80;65.60
42037;DHT22;30340;52.004;5.908;2023-08-24T11:51:11;26.80;65.40
42037;DHT22;30340;52.004;5.908;2023-08-24T11:53:44;26.90;65.80
42037;DHT22;30340;52.004;5.908;2023-08-24T11:56:12;26.90;65.00
42037;DHT22;30340;52.004;5.908;2023-08-24T11:58:41;26.80;65.10
42037;DHT22;30340;52.004;5.908;2023-08-24T12:01:08;26.80;65.10
42037;DHT22;30340;52.004;5.908;2023-08-24T12:03:38;26.70;65.10
42037;DHT22;30340;52.004;5.908;2023-08-24T12:06:14;26.70;65.10
42037;DHT22;30340;52.004;5.908;2023-08-24T12:08:42;26.80;65.10
42037;DHT22;30340;52.004;5.908;2023-08-24T12:13:42;26.90;64.60
42037;DHT22;30340;52.004;5.908;2023-08-24T12:16:07;27.00;64.50
42037;DHT22;30340;52.004;5.908;2023-08-24T12:18:37;26.80;64.30
42037;DHT22;30340;52.004;5.908;2023-08-24T12:21:11;26.80;64.40
42037;DHT22;30340;52.004;5.908;2023-08-24T12:23:38;26.90;64.50
42037;DHT22;30340;52.004;5.908;2023-08-24T12:26:04;27.00;64.50
42037;DHT22;30340;52.004;5.908;2023-08-24T12:28:33;27.00;64.50
42037;DHT22;30340;52.004;5.908;2023-08-24T12:30:58;27.10;64.60
42037;DHT22;30340;52.004;5.908;2023-08-24T12:33:31;27.10;64.30
42037;DHT22;30340;52.004;5.908;2023-08-24T12:35:59;27.00;64.40
42037;DHT22;30340;52.004;5.908;2023-08-24T12:38:26;26.90;64.60
42037;DHT22;30340;52.004;5.908;2023-08-24T12:40:52;26.90;64.90
42037;DHT22;30340;52.004;5.908;2023-08-24T12:43:18;26.90;64.90
42037;DHT22;30340;52.004;5.908;2023-08-24T12:45:44;27.00;64.90
42037;DHT22;30340;52.004;5.908;2023-08-24T12:48:10;27.00;65.40
42037;DHT22;30340;52.004;5.908;2023-08-24T12:50:37;27.10;65.00
42037;DHT22;30340;52.004;5.908;2023-08-24T12:53:03;27.00;65.00
42037;DHT22;30340;52.004;5.908;2023-08-24T12:55:32;26.90;65.10
42037;DHT22;30340;52.004;5.908;2023-08-24T12:57:57;26.80;65.60
42037;DHT22;30340;52.004;5.908;2023-08-24T13:00:23;26.70;66.80
42037;DHT22;30340;52.004;5.908;2023-08-24T13:02:50;26.70;66.70
42037;DHT22;30340;52.004;5.908;2023-08-24T13:05:16;26.50;67.30
42037;DHT22;30340;52.004;5.908;2023-08-24T13:07:41;26.40;67.90
42037;DHT22;30340;52.004;5.908;2023-08-24T13:10:07;26.30;68.30
42037;DHT22;30340;52.004;5.908;2023-08-24T13:12:34;26.40;68.20
42037;DHT22;30340;52.004;5.908;2023-08-24T13:15:00;26.40;68.30
42037;DHT22;30340;52.004;5.908;2023-08-24T13:17:27;26.30;68.80
42037;DHT22;30340;52.004;5.908;2023-08-24T13:19:53;26.30;69.30
42037;DHT22;30340;52.004;5.908;2023-08-24T13:22:19;26.30;69.40
42037;DHT22;30340;52.004;5.908;2023-08-24T13:24:44;26.40;69.40
42037;DHT22;30340;52.004;5.908;2023-08-24T13:27:10;26.50;69.30
42037;DHT22;30340;52.004;5.908;2023-08-24T13:29:40;26.60;69.20
42037;DHT22;30340;52.004;5.908;2023-08-24T13:32:06;26.70;68.80
42037;DHT22;30340;52.004;5.908;2023-08-24T13:34:32;26.90;68.50
42037;DHT22;30340;52.004;5.908;2023-08-24T13:36:58;26.90;67.50
42037;DHT22;30340;52.004;5.908;2023-08-24T13:39:26;27.00;67.20
42037;DHT22;30340;52.004;5.908;2023-08-24T13:41:56;27.00;66.80
42037;DHT22;30340;52.004;5.908;2023-08-24T13:44:22;27.10;66.40
42037;DHT22;30340;52.004;5.908;2023-08-24T13:46:48;27.10;66.40
42037;DHT22;30340;52.004;5.908;2023-08-24T13:49:13;27.20;66.10
42037;DHT22;30340;52.004;5.908;2023-08-24T13:51:39;27.10;65.90
42037;DHT22;30340;52.004;5.908;2023-08-24T13:54:18;27.20;66.00
42037;DHT22;30340;52.004;5.908;2023-08-24T13:56:47;27.30;66.00
42037;DHT22;30340;52.004;5.908;2023-08-24T13:59:13;27.30;66.20
42037;DHT22;30340;52.004;5.908;2023-08-24T14:01:42;27.20;66.30
42037;DHT22;30340;52.004;5.908;2023-08-24T14:04:08;27.10;66.50
42037;DHT22;30340;52.004;5.908;2023-08-24T14:06:34;27.10;66.70
42037;DHT22;30340;52.004;5.908;2023-08-24T14:09:02;27.10;66.80
42037;DHT22;30340;52.004;5.908;2023-08-24T14:11:28;27.10;67.00
42037;DHT22;30340;52.004;5.908;2023-08-24T14:13:54;27.10;67.00
42037;DHT22;30340;52.004;5.908;2023-08-24T14:16:20;27.10;67.00
42037;DHT22;30340;52.004;5.908;2023-08-24T14:18:46;27.00;66.90
42037;DHT22;30340;52.004;5.908;2023-08-24T14:21:12;26.90;67.20
42037;DHT22;30340;52.004;5.908;2023-08-24T14:23:38;26.90;67.30
42037;DHT22;30340;52.004;5.908;2023-08-24T14:26:04;26.90;67.40
42037;DHT22;30340;52.004;5.908;2023-08-24T14:28:50;26.90;67.40
42037;DHT22;30340;52.004;5.908;2023-08-24T14:31:19;26.80;67.40
42037;DHT22;30340;52.004;5.908;2023-08-24T14:33:45;26.70;67.70
42037;DHT22;30340;52.004;5.908;2023-08-24T14:36:11;26.70;67.90
42037;DHT22;30340;52.004;5.908;2023-08-24T14:38:41;26.70;67.90
42037;DHT22;30340;52.004;5.908;2023-08-24T14:41:10;26.70;68.00
42037;DHT22;30340;52.004;5.908;2023-08-24T14:43:37;26.80;67.90
42037;DHT22;30340;52.004;5.908;2023-08-24T14:46:03;26.80;67.70
42037;DHT22;30340;52.004;5.908;2023-08-24T14:48:29;26.80;67.70
42037;DHT22;30340;52.004;5.908;2023-08-24T14:50:56;26.80;67.50
42037;DHT22;30340;52.004;5.908;2023-08-24T14:53:22;26.90;67.50
42037;DHT22;30340;52.004;5.908;2023-08-24T14:55:48;26.80;67.50
42037;DHT22;30340;52.004;5.908;2023-08-24T14:58:14;26.80;67.70
42037;DHT22;30340;52.004;5.908;2023-08-24T15:00:39;26.70;67.80
42037;DHT22;30340;52.004;5.908;2023-08-24T15:03:05;26.70;68.00
42037;DHT22;30340;52.004;5.908;2023-08-24T15:05:31;26.70;68.10
42037;DHT22;30340;52.004;5.908;2023-08-24T15:07:56;26.50;68.20
42037;DHT22;30340;52.004;5.908;2023-08-24T15:10:22;26.50;68.50
42037;DHT22;30340;52.004;5.908;2023-08-24T15:12:48;26.40;68.50
42037;DHT22;30340;52.004;5.908;2023-08-24T15:15:13;26.40;68.70
42037;DHT22;30340;52.004;5.908;2023-08-24T15:17:43;26.30;68.80
42037;DHT22;30340;52.004;5.908;2023-08-24T15:20:09;26.40;68.90
42037;DHT22;30340;52.004;5.908;2023-08-24T15:22:35;26.30;68.70
42037;DHT22;30340;52.004;5.908;2023-08-24T15:25:01;26.40;68.80
42037;DHT22;30340;52.004;5.908;2023-08-24T15:27:28;26.40;68.80
42037;DHT22;30340;52.004;5.908;2023-08-24T15:29:54;26.40;68.80
42037;DHT22;30340;52.004;5.908;2023-08-24T15:32:20;26.30;68.90
42037;DHT22;30340;52.004;5.908;2023-08-24T15:34:46;26.30;69.00
42037;DHT22;30340;52.004;5.908;2023-08-24T15:37:12;26.20;69.10